createdAt,value
2019-01-08T00:01:39.018Z,86.86
2019-01-08T00:04:11.030Z,86.68
2019-01-08T00:06:43.021Z,87.01
2019-01-08T00:09:15.052Z,88.05
2019-01-08T00:11:47.021Z,87.71
2019-01-08T00:14:19.026Z,87.44
2019-01-08T00:16:50.979Z,87.53
2019-01-08T00:19:23.003Z,87.33
2019-01-08T00:21:55.037Z,87.81
2019-01-08T00:24:27.013Z,88.76
2019-01-08T00:26:59.074Z,87.33
2019-01-08T00:29:31.080Z,87.26
2019-01-08T00:32:03.089Z,87.94
2019-01-08T00:34:35.080Z,88.28
2019-01-08T00:37:07.084Z,87.81
2019-01-08T00:39:39.083Z,87.62
2019-01-08T00:42:11.055Z,87.84
2019-01-08T00:44:43.041Z,87.88
2019-01-08T00:47:15.283Z,87.36
2019-01-08T00:49:47.275Z,86.92
2019-01-08T00:52:19.249Z,88.42
2019-01-08T00:54:51.307Z,88.67
2019-01-08T00:57:23.255Z,88.38
2019-01-08T00:59:55.256Z,88.52
2019-01-08T01:02:27.238Z,87.75
2019-01-08T01:04:59.273Z,87.37
2019-01-08T01:07:31.228Z,87.81
2019-01-08T01:10:03.298Z,87.38
2019-01-08T01:12:35.361Z,87.57
2019-01-08T01:15:08.240Z,86.91
2019-01-08T01:17:40.243Z,87.17
2019-01-08T01:20:12.237Z,87.50
2019-01-08T01:22:44.182Z,87.27
2019-01-08T01:25:16.165Z,87.20
2019-01-08T01:27:48.160Z,87.64
2019-01-08T01:30:20.152Z,87.03
2019-01-08T01:32:52.134Z,87.24
2019-01-08T01:35:24.122Z,87.46
2019-01-08T01:37:56.103Z,87.24
2019-01-08T01:40:28.052Z,88.18
2019-01-08T01:43:00.041Z,88.66
2019-01-08T01:45:32.014Z,88.66
2019-01-08T01:48:04.002Z,87.56
2019-01-08T01:50:35.959Z,88.12
2019-01-08T01:53:07.960Z,87.12
2019-01-08T01:55:39.938Z,87.16
2019-01-08T01:58:11.939Z,86.68
2019-01-08T02:00:43.910Z,87.76
2019-01-08T02:03:15.925Z,88.23
2019-01-08T02:05:47.900Z,88.26
2019-01-08T02:08:19.903Z,88.21
2019-01-08T02:10:51.876Z,88.40
2019-01-08T02:13:23.890Z,87.42
2019-01-08T02:15:55.847Z,87.81
2019-01-08T02:18:27.822Z,88.42
2019-01-08T02:20:59.783Z,88.23
2019-01-08T02:23:31.801Z,88.38
2019-01-08T02:26:03.749Z,88.50
2019-01-08T02:28:35.777Z,88.99
2019-01-08T02:31:07.735Z,89.09
2019-01-08T02:33:39.711Z,87.66
2019-01-08T02:36:11.677Z,88.36
2019-01-08T02:38:43.676Z,88.34
2019-01-08T02:41:15.688Z,88.70
2019-01-08T02:43:47.620Z,88.28
2019-01-08T02:46:19.813Z,88.93
2019-01-08T02:48:51.860Z,88.71
2019-01-08T02:51:23.846Z,88.87
2019-01-08T02:53:55.801Z,89.16
2019-01-08T02:56:27.800Z,89.72
2019-01-08T02:58:59.765Z,89.43
2019-01-08T03:01:31.756Z,89.37
2019-01-08T03:04:03.708Z,89.31
2019-01-08T03:06:35.698Z,88.65
2019-01-08T03:09:07.656Z,88.04
2019-01-08T03:11:39.636Z,88.98
2019-01-08T03:14:11.593Z,89.28
2019-01-08T03:16:43.706Z,89.30
2019-01-08T03:19:15.656Z,88.69
2019-01-08T03:21:47.654Z,88.27
2019-01-08T03:24:19.706Z,89.17
2019-01-08T03:26:51.801Z,89.15
2019-01-08T03:29:23.789Z,89.01
2019-01-08T03:31:55.779Z,88.83
2019-01-08T03:34:27.734Z,88.79
2019-01-08T03:36:59.752Z,89.13
2019-01-08T03:39:31.704Z,89.43
2019-01-08T03:42:03.773Z,89.50
2019-01-08T03:44:35.751Z,90.24
2019-01-08T03:47:07.726Z,90.30
2019-01-08T03:49:39.704Z,89.96
2019-01-08T03:52:11.701Z,89.89
2019-01-08T03:54:43.657Z,89.95
2019-01-08T03:57:15.727Z,89.39
2019-01-08T03:59:47.688Z,89.32
2019-01-08T04:02:19.664Z,89.04
2019-01-08T04:04:51.660Z,89.68
2019-01-08T04:07:23.670Z,90.10
2019-01-08T04:09:55.627Z,90.08
2019-01-08T04:12:27.618Z,89.82
2019-01-08T04:14:59.594Z,89.64
2019-01-08T04:17:31.588Z,89.43
2019-01-08T04:20:03.613Z,89.78
2019-01-08T04:22:35.663Z,89.49
2019-01-08T04:25:07.625Z,89.72
2019-01-08T04:27:39.625Z,90.10
2019-01-08T04:30:11.641Z,90.10
2019-01-08T04:32:43.589Z,90.27
2019-01-08T04:35:15.558Z,90.29
2019-01-08T04:37:47.533Z,90.07
2019-01-08T04:40:19.569Z,90.21
2019-01-08T04:42:51.549Z,90.34
2019-01-08T04:45:23.560Z,90.04
2019-01-08T04:47:55.506Z,90.14
2019-01-08T04:50:27.517Z,89.71
2019-01-08T04:52:59.488Z,89.36
2019-01-08T04:55:31.476Z,89.60
2019-01-08T04:58:03.446Z,89.47
2019-01-08T05:00:35.432Z,90.01
2019-01-08T05:03:07.449Z,89.72
2019-01-08T05:05:39.428Z,89.63
2019-01-08T05:08:11.400Z,90.02
2019-01-08T05:10:43.400Z,89.91
2019-01-08T05:13:15.519Z,89.65
2019-01-08T05:15:47.534Z,89.65
2019-01-08T05:18:19.528Z,89.18
2019-01-08T05:20:51.530Z,89.67
2019-01-08T05:23:23.503Z,90.29
2019-01-08T05:25:55.529Z,90.23
2019-01-08T05:28:27.496Z,90.10
2019-01-08T05:30:59.479Z,89.63
2019-01-08T05:33:31.488Z,89.34
2019-01-08T05:36:03.476Z,89.44
2019-01-08T05:38:35.546Z,89.18
2019-01-08T05:41:07.543Z,89.52
2019-01-08T05:43:39.578Z,90.12
2019-01-08T05:46:11.522Z,90.08
2019-01-08T05:48:43.537Z,90.12
2019-01-08T05:51:15.502Z,89.29
2019-01-08T05:53:47.475Z,89.13
2019-01-08T05:56:19.465Z,89.37
2019-01-08T05:58:51.546Z,89.08
2019-01-08T06:01:23.513Z,89.39
2019-01-08T06:03:55.508Z,89.20
2019-01-08T06:06:27.475Z,89.27
2019-01-08T06:08:59.465Z,88.98
2019-01-08T06:11:31.429Z,88.92
2019-01-08T06:14:03.424Z,89.01
2019-01-08T06:16:35.403Z,88.95
2019-01-08T06:19:07.419Z,88.86
2019-01-08T06:21:39.430Z,89.02
2019-01-08T06:24:11.427Z,88.61
2019-01-08T06:26:43.452Z,88.61
2019-01-08T06:29:15.441Z,89.52
2019-01-08T06:31:47.400Z,89.37
2019-01-08T06:34:19.394Z,90.08
2019-01-08T06:36:51.364Z,89.39
2019-01-08T06:39:23.365Z,89.15
2019-01-08T06:41:55.340Z,89.27
2019-01-08T06:44:27.341Z,89.31
2019-01-08T06:46:59.339Z,89.22
2019-01-08T06:49:31.341Z,88.51
2019-01-08T06:52:03.291Z,88.76
2019-01-08T06:54:35.319Z,88.87
2019-01-08T06:57:07.299Z,88.45
2019-01-08T06:59:39.322Z,88.28
2019-01-08T07:02:11.318Z,88.29
2019-01-08T07:04:43.301Z,88.62
2019-01-08T07:07:15.289Z,88.79
2019-01-08T07:09:47.311Z,88.66
2019-01-08T07:12:19.349Z,88.23
2019-01-08T07:14:51.318Z,88.23
2019-01-08T07:17:23.321Z,88.68
2019-01-08T07:19:55.298Z,88.85
2019-01-08T07:22:27.323Z,88.98
2019-01-08T07:24:59.391Z,88.84
2019-01-08T07:27:31.444Z,88.82
2019-01-08T07:30:03.740Z,88.78
2019-01-08T07:32:35.742Z,88.68
2019-01-08T07:35:07.732Z,89.09
2019-01-08T07:37:39.727Z,89.43
2019-01-08T07:40:11.699Z,89.71
2019-01-08T07:42:43.703Z,89.57
2019-01-08T07:45:15.703Z,90.12
2019-01-08T07:47:47.691Z,90.00
2019-01-08T07:50:19.672Z,90.48
2019-01-08T07:52:51.672Z,90.90
2019-01-08T07:55:23.644Z,90.92
2019-01-08T07:57:55.654Z,89.55
2019-01-08T08:00:27.639Z,90.03
2019-01-08T08:02:59.644Z,89.99
2019-01-08T08:05:31.636Z,90.12
2019-01-08T08:08:03.626Z,90.48
2019-01-08T08:10:35.604Z,90.86
2019-01-08T08:13:07.597Z,90.43
2019-01-08T08:15:46.604Z,90.94
2019-01-08T08:18:18.690Z,90.92
2019-01-08T08:20:50.713Z,90.91
2019-01-08T08:23:22.762Z,91.15
2019-01-08T08:25:54.763Z,91.29
2019-01-08T08:28:26.796Z,91.47
2019-01-08T08:30:59.217Z,91.56
2019-01-08T08:33:31.285Z,91.49
2019-01-08T08:36:03.259Z,91.38
2019-01-08T08:38:36.639Z,91.42
2019-01-08T08:41:08.629Z,91.60
2019-01-08T08:43:40.643Z,91.64
2019-01-08T08:46:12.662Z,91.83
2019-01-08T08:48:44.678Z,91.66
2019-01-08T08:51:16.649Z,91.88
2019-01-08T08:53:52.573Z,91.56
2019-01-08T08:56:22.547Z,91.31
2019-01-08T08:58:54.561Z,91.15
2019-01-08T09:01:26.561Z,90.81
2019-01-08T09:03:58.579Z,91.11
2019-01-08T09:06:30.614Z,90.98
2019-01-08T09:09:02.762Z,90.80
2019-01-08T09:11:34.769Z,90.95
2019-01-08T09:14:06.728Z,91.01
2019-01-08T09:16:38.748Z,90.95
2019-01-08T09:19:10.736Z,91.28
2019-01-08T09:21:42.749Z,91.00
2019-01-08T09:24:14.724Z,90.87
2019-01-08T09:26:46.768Z,89.49
2019-01-08T09:29:18.722Z,89.95
2019-01-08T09:31:50.713Z,89.81
2019-01-08T09:34:22.681Z,89.54
2019-01-08T09:36:54.700Z,88.83
2019-01-08T09:39:26.681Z,88.30
2019-01-08T09:41:58.698Z,88.02
2019-01-08T09:44:30.696Z,87.50
2019-01-08T09:47:02.678Z,87.81
2019-01-08T09:49:34.638Z,88.11
2019-01-08T09:52:06.634Z,88.26
2019-01-08T09:54:38.619Z,87.86
2019-01-08T09:57:10.637Z,87.33
2019-01-08T09:59:42.615Z,87.39
2019-01-08T10:02:14.635Z,86.87
2019-01-08T10:04:46.585Z,86.64
2019-01-08T10:07:18.606Z,87.16
2019-01-08T10:09:50.587Z,87.63
2019-01-08T10:12:22.616Z,87.80
2019-01-08T10:14:54.598Z,87.20
2019-01-08T10:17:26.642Z,86.82
2019-01-08T10:19:58.740Z,87.29
2019-01-08T10:22:30.745Z,87.52
2019-01-08T10:25:02.846Z,87.84
2019-01-08T10:27:34.857Z,86.58
2019-01-08T10:30:08.377Z,86.88
2019-01-08T10:32:40.391Z,86.93
2019-01-08T10:35:12.383Z,86.83
2019-01-08T10:37:44.398Z,86.62
2019-01-08T10:40:16.392Z,85.71
2019-01-08T10:42:48.414Z,85.79
2019-01-08T10:45:20.377Z,85.25
2019-01-08T10:47:52.391Z,84.99
2019-01-08T10:50:24.408Z,85.66
2019-01-08T10:52:56.410Z,86.09
2019-01-08T10:55:28.413Z,86.74
2019-01-08T10:58:00.416Z,86.52
2019-01-08T11:00:32.522Z,86.38
2019-01-08T11:03:04.530Z,85.68
2019-01-08T11:05:36.538Z,85.73
2019-01-08T11:08:08.527Z,85.75
2019-01-08T11:10:40.638Z,86.89
2019-01-08T11:13:12.629Z,86.76
2019-01-08T11:15:44.671Z,85.41
2019-01-08T11:18:16.732Z,84.90
2019-01-08T11:20:48.737Z,84.98
2019-01-08T11:23:20.818Z,84.91
2019-01-08T11:25:52.810Z,85.39
2019-01-08T11:28:24.832Z,84.52
2019-01-08T11:30:56.858Z,84.21
2019-01-08T11:33:28.835Z,84.39
2019-01-08T11:36:00.841Z,84.72
2019-01-08T11:38:32.839Z,84.40
2019-01-08T11:41:04.859Z,84.30
2019-01-08T11:43:36.850Z,81.17
2019-01-08T11:46:08.851Z,80.98
2019-01-08T11:48:40.844Z,81.67
2019-01-08T11:51:12.877Z,82.57
2019-01-08T11:53:44.849Z,81.11
2019-01-08T11:56:16.900Z,80.99
2019-01-08T11:58:48.898Z,80.80
2019-01-08T12:01:20.900Z,81.26
2019-01-08T12:03:52.919Z,81.30
2019-01-08T12:06:24.946Z,82.67
2019-01-08T12:08:56.937Z,82.84
2019-01-08T12:11:30.453Z,82.54
2019-01-08T12:14:02.431Z,83.09
2019-01-08T12:16:34.460Z,82.64
2019-01-08T12:19:06.451Z,81.96
2019-01-08T12:21:38.438Z,81.72
2019-01-08T12:24:10.508Z,81.36
2019-01-08T12:26:42.475Z,80.66
2019-01-08T12:29:14.503Z,79.11
2019-01-08T12:31:46.498Z,79.29
2019-01-08T12:34:18.509Z,80.30
2019-01-08T12:36:50.495Z,80.45
2019-01-08T12:39:22.500Z,78.49
2019-01-08T12:41:54.524Z,78.44
2019-01-08T12:44:26.546Z,79.05
2019-01-08T12:46:58.509Z,78.50
2019-01-08T12:49:30.496Z,76.42
2019-01-08T12:52:02.469Z,76.18
2019-01-08T12:54:34.472Z,76.50
2019-01-08T12:57:06.466Z,75.54
2019-01-08T12:59:38.475Z,75.87
2019-01-08T13:02:14.872Z,74.62
2019-01-08T13:04:44.401Z,74.87
2019-01-08T13:07:16.386Z,74.98
2019-01-08T13:09:48.393Z,75.39
2019-01-08T13:12:20.402Z,77.55
2019-01-08T13:14:52.403Z,75.59
2019-01-08T13:17:24.423Z,74.61
2019-01-08T13:19:56.438Z,73.54
2019-01-08T13:22:28.422Z,75.75
2019-01-08T13:25:00.497Z,75.71
2019-01-08T13:27:32.491Z,76.99
2019-01-08T13:30:05.005Z,75.70
2019-01-08T13:32:36.988Z,75.87
2019-01-08T13:35:09.011Z,74.26
2019-01-08T13:37:40.986Z,75.60
2019-01-08T13:40:12.999Z,76.11
2019-01-08T13:42:44.973Z,76.55
2019-01-08T13:45:16.976Z,75.79
2019-01-08T13:47:48.957Z,76.43
2019-01-08T13:50:20.977Z,78.15
2019-01-08T13:52:52.973Z,79.23
2019-01-08T13:55:24.961Z,80.06
2019-01-08T13:57:56.997Z,81.02
2019-01-08T14:00:29.003Z,81.72
2019-01-08T14:03:01.027Z,82.55
2019-01-08T14:05:33.032Z,82.72
2019-01-08T14:08:05.049Z,83.00
2019-01-08T14:10:37.024Z,82.83
2019-01-08T14:13:09.036Z,83.05
2019-01-08T14:15:41.044Z,83.32
2019-01-08T14:18:13.070Z,84.32
2019-01-08T14:20:45.066Z,84.55
2019-01-08T14:23:17.093Z,83.22
2019-01-08T14:25:49.067Z,83.38
2019-01-08T14:28:33.388Z,83.34
2019-01-08T14:31:05.383Z,84.46
2019-01-08T14:33:37.389Z,84.09
2019-01-08T14:36:09.400Z,84.19
2019-01-08T14:38:41.453Z,83.21
2019-01-08T14:41:13.512Z,84.72
2019-01-08T14:43:45.549Z,83.67
2019-01-08T14:46:17.560Z,84.20
2019-01-08T14:48:49.605Z,83.21
2019-01-08T14:51:21.656Z,83.76
2019-01-08T14:53:53.663Z,83.57
2019-01-08T14:56:25.722Z,83.42
2019-01-08T14:58:57.766Z,82.68
2019-01-08T15:01:29.818Z,83.50
2019-01-08T15:04:01.955Z,84.28
2019-01-08T15:06:33.990Z,83.70
2019-01-08T15:09:06.866Z,84.04
2019-01-08T15:11:38.892Z,84.43
2019-01-08T15:14:10.930Z,84.88
2019-01-08T15:16:43.328Z,85.02
2019-01-08T15:19:15.356Z,85.30
2019-01-08T15:21:47.371Z,85.35
2019-01-08T15:24:19.462Z,84.49
2019-01-08T15:26:51.523Z,84.98
2019-01-08T15:29:23.584Z,84.73
2019-01-08T15:31:55.613Z,85.50
2019-01-08T15:34:27.793Z,85.63
2019-01-08T15:36:59.877Z,85.57
2019-01-08T15:39:31.882Z,86.77
2019-01-08T15:42:03.919Z,85.61
2019-01-08T15:44:35.905Z,85.92
2019-01-08T15:47:07.918Z,85.67
2019-01-08T15:49:39.934Z,86.80
2019-01-08T15:52:12.008Z,86.19
2019-01-08T15:54:44.053Z,86.00
2019-01-08T15:57:16.112Z,85.46
2019-01-08T15:59:48.135Z,85.40
2019-01-08T16:02:20.203Z,85.82
2019-01-08T16:04:52.246Z,85.00
2019-01-08T16:07:24.315Z,85.24
2019-01-08T16:09:56.339Z,84.37
2019-01-08T16:12:28.382Z,83.87
2019-01-08T16:15:00.515Z,85.18
2019-01-08T16:17:32.571Z,86.13
2019-01-08T16:20:04.679Z,86.11
2019-01-08T16:22:36.722Z,86.27
2019-01-08T16:25:08.780Z,85.73
2019-01-08T16:27:40.883Z,86.46
2019-01-08T16:30:12.886Z,84.90
2019-01-08T16:32:44.934Z,85.93
2019-01-08T16:35:17.011Z,84.71
2019-01-08T16:37:49.097Z,84.97
2019-01-08T16:40:21.089Z,84.22
2019-01-08T16:42:53.158Z,84.53
2019-01-08T16:45:25.154Z,83.54
2019-01-08T16:47:57.216Z,83.80
2019-01-08T16:50:29.255Z,84.43
2019-01-08T16:53:01.321Z,83.84
2019-01-08T16:55:33.355Z,84.19
2019-01-08T16:58:05.437Z,84.37
2019-01-08T17:00:37.439Z,84.24
2019-01-08T17:03:09.543Z,84.00
2019-01-08T17:05:41.560Z,84.26
2019-01-08T17:08:13.616Z,83.82
2019-01-08T17:10:45.702Z,84.40
2019-01-08T17:13:17.771Z,84.24
2019-01-08T17:15:49.766Z,84.28
2019-01-08T17:18:21.859Z,82.82
2019-01-08T17:20:53.894Z,83.05
2019-01-08T17:23:26.007Z,82.94
2019-01-08T17:25:58.091Z,82.27
2019-01-08T17:28:30.112Z,82.10
2019-01-08T17:31:02.187Z,82.32
2019-01-08T17:33:34.380Z,82.44
2019-01-08T17:36:06.557Z,82.87
2019-01-08T17:38:38.572Z,83.71
2019-01-08T17:41:10.609Z,83.86
2019-01-08T17:43:42.708Z,83.75
2019-01-08T17:46:14.793Z,84.59
2019-01-08T17:48:46.787Z,84.24
2019-01-08T17:51:18.896Z,84.62
2019-01-08T17:53:50.895Z,84.64
2019-01-08T17:56:23.069Z,85.41
2019-01-08T17:59:15.623Z,84.81
2019-01-08T18:02:31.041Z,84.51
2019-01-08T18:05:03.188Z,83.28
2019-01-08T18:07:35.258Z,83.45
2019-01-08T18:10:07.869Z,83.81
2019-01-08T18:12:40.161Z,83.84
2019-01-08T18:15:12.218Z,83.13
2019-01-08T18:17:44.262Z,83.15
2019-01-08T18:20:16.301Z,83.86
2019-01-08T18:22:48.381Z,83.49
2019-01-08T18:25:20.448Z,84.09
2019-01-08T18:28:12.027Z,84.43
2019-01-08T18:30:44.105Z,84.60
2019-01-08T18:33:16.199Z,84.71
2019-01-08T18:35:48.262Z,84.47
2019-01-08T18:38:20.343Z,84.68
2019-01-08T18:40:52.385Z,84.00
2019-01-08T18:43:24.535Z,84.30
2019-01-08T18:45:56.841Z,84.93
2019-01-08T18:49:09.735Z,84.34
2019-01-08T18:51:41.855Z,84.17
2019-01-08T18:54:16.159Z,83.42
2019-01-08T18:56:48.196Z,82.94
2019-01-08T18:59:20.307Z,83.32
2019-01-08T19:01:52.444Z,82.99
2019-01-08T19:04:24.668Z,83.35
2019-01-08T19:06:56.807Z,83.53
2019-01-08T19:09:49.708Z,83.01
2019-01-08T19:12:23.733Z,82.66
2019-01-08T19:14:55.844Z,81.84
2019-01-08T19:17:27.874Z,82.60
2019-01-08T19:20:00.185Z,82.25
2019-01-08T19:22:32.302Z,81.98
2019-01-08T19:25:04.597Z,83.32
2019-01-08T19:27:36.719Z,83.69
2019-01-08T19:30:09.466Z,82.21
2019-01-08T19:32:41.530Z,83.17
2019-01-08T19:35:13.664Z,82.29
2019-01-08T19:37:45.811Z,81.33
2019-01-08T19:40:17.912Z,82.66
2019-01-08T19:42:49.997Z,82.58
2019-01-08T19:45:22.138Z,83.89
2019-01-08T19:47:54.222Z,84.82
2019-01-08T19:50:26.368Z,85.34
2019-01-08T19:52:58.537Z,86.26
2019-01-08T19:55:30.685Z,86.39
2019-01-08T19:58:02.718Z,86.02
2019-01-08T20:00:34.858Z,85.77
2019-01-08T20:03:06.899Z,86.76
2019-01-08T20:05:39.048Z,84.53
2019-01-08T20:08:11.200Z,84.26
2019-01-08T20:10:43.363Z,84.15
2019-01-08T20:13:15.476Z,83.37
2019-01-08T20:15:47.688Z,84.18
2019-01-08T20:18:19.947Z,83.75
2019-01-08T20:20:52.262Z,83.54
2019-01-08T20:23:24.492Z,83.70
2019-01-08T20:25:56.577Z,83.93
2019-01-08T20:28:28.717Z,83.25
2019-01-08T20:31:00.755Z,83.36
2019-01-08T20:33:32.888Z,83.34
2019-01-08T20:36:04.968Z,83.77
2019-01-08T20:38:37.122Z,82.65
2019-01-08T20:41:09.194Z,83.56
2019-01-08T20:43:41.376Z,82.72
2019-01-08T20:46:13.418Z,82.09
2019-01-08T20:48:45.481Z,82.38
2019-01-08T20:51:17.528Z,82.01
2019-01-08T20:53:49.604Z,82.50
2019-01-08T20:56:21.635Z,82.83
2019-01-08T20:58:53.751Z,81.84
2019-01-08T21:01:25.748Z,82.29
2019-01-08T21:03:57.807Z,81.84
2019-01-08T21:06:29.882Z,81.09
2019-01-08T21:09:01.950Z,80.24
2019-01-08T21:11:33.989Z,81.06
2019-01-08T21:14:06.062Z,80.50
2019-01-08T21:16:38.152Z,79.97
2019-01-08T21:19:10.193Z,81.57
2019-01-08T21:21:42.232Z,81.35
2019-01-08T21:24:14.287Z,81.31
2019-01-08T21:26:46.313Z,80.65
2019-01-08T21:29:18.432Z,80.37
2019-01-08T21:31:50.425Z,80.57
2019-01-08T21:34:22.440Z,80.19
2019-01-08T21:36:54.447Z,80.05
2019-01-08T21:39:26.435Z,80.47
2019-01-08T21:41:58.413Z,78.60
2019-01-08T21:44:30.475Z,79.06
2019-01-08T21:47:43.297Z,78.71
2019-01-08T21:50:15.374Z,79.71
2019-01-08T21:52:47.344Z,79.37
2019-01-08T21:55:19.346Z,80.31
2019-01-08T21:57:51.355Z,78.16
2019-01-08T22:00:23.412Z,78.70
2019-01-08T22:02:55.380Z,77.99
2019-01-08T22:05:27.432Z,78.49
2019-01-08T22:08:00.715Z,78.48
2019-01-08T22:10:33.386Z,78.52
2019-01-08T22:13:05.412Z,78.71
2019-01-08T22:16:18.213Z,78.64
2019-01-08T22:18:50.304Z,78.53
2019-01-08T22:21:22.345Z,79.02
2019-01-08T22:23:54.311Z,79.87
2019-01-08T22:26:26.385Z,80.32
2019-01-08T22:29:39.208Z,79.89
2019-01-08T22:32:11.248Z,78.42
2019-01-08T22:34:43.234Z,79.51
2019-01-08T22:37:15.288Z,79.75
2019-01-08T22:39:47.293Z,79.51
2019-01-08T22:42:19.389Z,79.73
2019-01-08T22:44:51.415Z,78.28
2019-01-08T22:47:23.536Z,78.61
2019-01-08T22:49:55.578Z,78.78
2019-01-08T22:52:27.593Z,79.17
2019-01-08T22:54:59.617Z,78.72
2019-01-08T22:57:31.629Z,79.05
2019-01-08T23:00:46.030Z,79.22
2019-01-08T23:03:18.140Z,78.84
2019-01-08T23:05:51.587Z,79.96
2019-01-08T23:08:24.092Z,80.06
2019-01-08T23:10:56.053Z,79.96
2019-01-08T23:13:28.203Z,80.72
2019-01-08T23:16:00.199Z,81.84
2019-01-08T23:18:32.223Z,80.26
2019-01-08T23:21:04.207Z,81.68
2019-01-08T23:23:36.214Z,82.26
2019-01-08T23:26:08.281Z,83.26
2019-01-08T23:28:40.287Z,81.74
2019-01-08T23:31:12.224Z,81.94
2019-01-08T23:33:44.197Z,82.56
2019-01-08T23:36:16.159Z,81.08
2019-01-08T23:38:48.142Z,81.78
2019-01-08T23:41:20.111Z,80.77
2019-01-08T23:43:52.069Z,80.57
2019-01-08T23:46:24.064Z,80.04
2019-01-08T23:48:56.000Z,80.99
2019-01-08T23:51:27.998Z,82.31
2019-01-08T23:54:00.102Z,82.91
2019-01-08T23:56:33.574Z,82.99
2019-01-08T23:59:05.551Z,82.00
